createdAt,value
2018-07-31T00:00:41.770Z,24.00
2018-07-31T00:03:10.942Z,24.00
2018-07-31T00:05:40.171Z,24.01
2018-07-31T00:08:09.142Z,24.05
2018-07-31T00:10:38.455Z,24.06
2018-07-31T00:13:07.642Z,24.05
2018-07-31T00:15:36.823Z,24.04
2018-07-31T00:18:05.942Z,24.04
2018-07-31T00:20:34.844Z,24.03
2018-07-31T00:23:03.822Z,24.02
2018-07-31T00:25:32.799Z,24.01
2018-07-31T00:28:01.984Z,23.94
2018-07-31T00:30:31.341Z,23.94
2018-07-31T00:33:00.827Z,23.94
2018-07-31T00:35:29.790Z,23.92
2018-07-31T00:37:59.068Z,23.94
2018-07-31T00:40:28.363Z,24.04
2018-07-31T00:42:57.173Z,24.03
2018-07-31T00:45:26.170Z,23.99
2018-07-31T00:47:55.490Z,24.01
2018-07-31T00:50:24.674Z,24.05
2018-07-31T00:52:53.970Z,24.04
2018-07-31T00:55:23.271Z,24.03
2018-07-31T00:57:52.370Z,24.07
2018-07-31T01:00:21.485Z,24.11
2018-07-31T01:02:50.361Z,24.14
2018-07-31T01:05:19.774Z,24.22
2018-07-31T01:07:48.954Z,24.22
2018-07-31T01:10:18.246Z,24.12
2018-07-31T01:12:47.305Z,24.15
2018-07-31T01:15:16.647Z,24.15
2018-07-31T01:17:45.806Z,24.15
2018-07-31T01:20:14.847Z,24.26
2018-07-31T01:22:44.051Z,24.33
2018-07-31T01:25:13.191Z,24.30
2018-07-31T01:27:42.526Z,24.27
2018-07-31T01:30:11.473Z,24.27
2018-07-31T01:32:40.333Z,24.26
2018-07-31T01:35:09.534Z,24.26
2018-07-31T01:37:38.493Z,24.23
2018-07-31T01:40:07.655Z,24.19
2018-07-31T01:42:36.761Z,24.26
2018-07-31T01:45:05.790Z,24.24
2018-07-31T01:47:34.984Z,24.26
2018-07-31T01:50:04.246Z,24.22
2018-07-31T01:52:33.486Z,24.15
2018-07-31T01:55:02.641Z,24.11
2018-07-31T01:57:31.462Z,24.17
2018-07-31T02:00:00.644Z,24.15
2018-07-31T02:02:29.702Z,24.09
2018-07-31T02:04:58.942Z,24.06
2018-07-31T02:07:28.084Z,24.03
2018-07-31T02:09:57.102Z,24.11
2018-07-31T02:12:26.105Z,24.06
2018-07-31T02:14:55.235Z,24.07
2018-07-31T02:17:24.425Z,24.12
2018-07-31T02:19:53.519Z,24.05
2018-07-31T02:22:22.610Z,23.99
2018-07-31T02:24:51.748Z,24.13
2018-07-31T02:27:21.004Z,24.14
2018-07-31T02:29:55.173Z,24.09
2018-07-31T02:32:24.519Z,24.09
2018-07-31T02:34:53.661Z,24.07
2018-07-31T02:37:22.582Z,24.08
2018-07-31T02:39:51.744Z,24.18
2018-07-31T02:42:20.875Z,24.21
2018-07-31T02:44:49.992Z,24.20
2018-07-31T02:47:19.302Z,24.23
2018-07-31T02:49:48.882Z,24.23
2018-07-31T02:52:18.170Z,24.26
2018-07-31T02:54:47.029Z,24.28
2018-07-31T02:57:16.153Z,24.18
2018-07-31T02:59:45.335Z,24.19
2018-07-31T03:02:14.223Z,24.06
2018-07-31T03:04:43.340Z,24.04
2018-07-31T03:07:12.454Z,24.01
2018-07-31T03:09:41.754Z,23.92
2018-07-31T03:12:10.938Z,23.88
2018-07-31T03:14:39.907Z,23.88
2018-07-31T03:17:09.139Z,23.82
2018-07-31T03:19:38.265Z,23.79
2018-07-31T03:22:07.369Z,23.84
2018-07-31T03:24:36.539Z,23.83
2018-07-31T03:27:05.662Z,23.89
2018-07-31T03:29:34.612Z,24.04
2018-07-31T03:32:03.727Z,24.06
2018-07-31T03:34:32.955Z,24.13
2018-07-31T03:37:02.107Z,24.07
2018-07-31T03:39:31.314Z,24.10
2018-07-31T03:42:00.497Z,24.12
2018-07-31T03:44:29.786Z,24.04
2018-07-31T03:46:59.132Z,24.05
2018-07-31T03:49:28.462Z,24.04
2018-07-31T03:51:57.329Z,24.06
2018-07-31T03:54:26.373Z,24.06
2018-07-31T03:56:55.566Z,24.15
2018-07-31T03:59:24.746Z,24.27
2018-07-31T04:01:53.970Z,24.29
2018-07-31T04:04:23.191Z,24.27
2018-07-31T04:06:52.194Z,24.23
2018-07-31T04:09:21.318Z,24.26
2018-07-31T04:11:50.643Z,24.25
2018-07-31T04:14:19.875Z,24.22
2018-07-31T04:16:48.990Z,24.11
2018-07-31T04:19:17.891Z,24.06
2018-07-31T04:21:47.155Z,24.03
2018-07-31T04:24:16.622Z,24.06
2018-07-31T04:26:45.489Z,24.09
2018-07-31T04:29:14.618Z,24.08
2018-07-31T04:31:43.880Z,24.08
2018-07-31T04:34:12.885Z,24.13
2018-07-31T04:36:42.086Z,24.15
2018-07-31T04:39:12.622Z,24.13
2018-07-31T04:41:41.614Z,24.13
2018-07-31T04:44:10.754Z,24.09
2018-07-31T04:46:39.703Z,24.04
2018-07-31T04:49:08.601Z,24.05
2018-07-31T04:51:37.863Z,23.99
2018-07-31T04:54:06.987Z,24.14
2018-07-31T04:56:35.944Z,24.13
2018-07-31T04:59:05.127Z,24.19
2018-07-31T05:01:34.414Z,24.31
2018-07-31T05:04:03.366Z,24.44
2018-07-31T05:06:32.454Z,24.41
2018-07-31T05:09:01.706Z,24.32
2018-07-31T05:11:31.031Z,24.22
2018-07-31T05:14:00.149Z,24.09
2018-07-31T05:16:29.333Z,23.87
2018-07-31T05:18:58.178Z,23.73
2018-07-31T05:21:27.275Z,23.63
2018-07-31T05:23:56.426Z,23.57
2018-07-31T05:26:25.602Z,23.55
2018-07-31T05:28:54.757Z,23.60
2018-07-31T05:31:24.087Z,23.66
2018-07-31T05:33:53.526Z,23.65
2018-07-31T05:36:22.420Z,23.74
2018-07-31T05:38:51.254Z,23.74
2018-07-31T05:41:20.482Z,23.75
2018-07-31T05:43:49.559Z,23.74
2018-07-31T05:46:18.787Z,23.76
2018-07-31T05:48:48.040Z,23.79
2018-07-31T05:51:17.278Z,23.83
2018-07-31T05:53:46.111Z,23.91
2018-07-31T05:56:15.368Z,23.92
2018-07-31T05:58:44.394Z,23.93
2018-07-31T06:01:13.358Z,24.02
2018-07-31T06:03:42.447Z,24.13
2018-07-31T06:06:11.588Z,24.27
2018-07-31T06:08:41.924Z,24.26
2018-07-31T06:11:10.946Z,24.24
2018-07-31T06:13:40.405Z,24.23
2018-07-31T06:16:09.501Z,24.23
2018-07-31T06:18:38.698Z,24.21
2018-07-31T06:21:08.519Z,24.23
2018-07-31T06:23:38.047Z,24.30
2018-07-31T06:26:07.458Z,24.33
2018-07-31T06:28:36.350Z,24.32
2018-07-31T06:31:05.627Z,24.40
2018-07-31T06:33:35.147Z,24.43
2018-07-31T06:36:04.208Z,24.48
2018-07-31T06:38:33.290Z,24.49
2018-07-31T06:41:02.583Z,24.50
2018-07-31T06:43:31.806Z,24.53
2018-07-31T06:46:00.992Z,24.51
2018-07-31T06:48:30.182Z,24.57
2018-07-31T06:50:59.020Z,24.65
2018-07-31T06:53:27.820Z,24.68
2018-07-31T06:55:56.944Z,24.73
2018-07-31T06:58:25.855Z,24.72
2018-07-31T07:00:55.087Z,24.69
2018-07-31T07:03:23.944Z,24.69
2018-07-31T07:05:53.126Z,24.70
2018-07-31T07:08:22.308Z,24.77
2018-07-31T07:10:51.607Z,24.86
2018-07-31T07:13:20.907Z,24.84
2018-07-31T07:15:50.040Z,24.91
2018-07-31T07:18:19.146Z,25.03
2018-07-31T07:20:48.277Z,25.10
2018-07-31T07:23:17.214Z,25.23
2018-07-31T07:25:46.286Z,25.21
2018-07-31T07:28:15.518Z,25.31
2018-07-31T07:30:44.694Z,25.28
2018-07-31T07:33:13.686Z,25.05
2018-07-31T07:35:42.493Z,25.01
2018-07-31T07:38:11.337Z,25.00
2018-07-31T07:40:40.546Z,25.07
2018-07-31T07:43:09.752Z,25.15
2018-07-31T07:45:38.933Z,25.27
2018-07-31T07:48:08.178Z,25.33
2018-07-31T07:50:37.464Z,25.44
2018-07-31T07:53:06.669Z,25.43
2018-07-31T07:55:35.647Z,25.47
2018-07-31T07:58:04.973Z,25.47
2018-07-31T08:00:34.067Z,25.48
2018-07-31T08:03:03.321Z,25.54
2018-07-31T08:05:32.130Z,25.58
2018-07-31T08:08:01.313Z,25.70
2018-07-31T08:10:30.530Z,25.62
2018-07-31T08:12:59.700Z,25.53
2018-07-31T08:15:28.509Z,25.43
2018-07-31T08:17:57.387Z,25.43
2018-07-31T08:20:26.565Z,25.49
2018-07-31T08:22:55.912Z,25.61
2018-07-31T08:25:25.928Z,25.65
2018-07-31T08:27:55.263Z,25.61
2018-07-31T08:30:24.322Z,25.59
2018-07-31T08:32:53.468Z,25.67
2018-07-31T08:35:22.759Z,25.75
2018-07-31T08:37:51.605Z,25.79
2018-07-31T08:40:20.798Z,25.83
2018-07-31T08:42:50.055Z,25.91
2018-07-31T08:45:19.250Z,25.98
2018-07-31T08:47:48.454Z,26.08
2018-07-31T08:50:17.464Z,26.06
2018-07-31T08:52:46.780Z,26.16
2018-07-31T08:55:15.797Z,26.20
2018-07-31T08:57:45.089Z,26.22
2018-07-31T09:00:14.335Z,26.29
2018-07-31T09:02:43.588Z,26.25
2018-07-31T09:05:12.751Z,26.23
2018-07-31T09:07:41.602Z,26.22
2018-07-31T09:10:10.908Z,26.32
2018-07-31T09:12:40.054Z,26.42
2018-07-31T09:15:09.498Z,26.48
2018-07-31T09:17:38.865Z,26.54
2018-07-31T09:20:07.994Z,26.62
2018-07-31T09:22:37.220Z,26.68
2018-07-31T09:25:06.687Z,26.61
2018-07-31T09:27:35.887Z,26.65
2018-07-31T09:30:05.407Z,26.59
2018-07-31T09:33:07.459Z,26.53
2018-07-31T09:35:37.319Z,26.51
2018-07-31T09:38:06.719Z,26.50
2018-07-31T09:40:35.735Z,26.61
2018-07-31T09:43:04.870Z,26.58
2018-07-31T09:45:34.039Z,26.55
2018-07-31T09:48:03.383Z,26.58
2018-07-31T09:50:32.616Z,26.60
2018-07-31T09:53:01.873Z,26.56
2018-07-31T09:55:31.083Z,26.44
2018-07-31T09:58:00.215Z,26.49
2018-07-31T10:00:34.220Z,26.47
2018-07-31T10:03:03.328Z,26.39
2018-07-31T10:05:32.452Z,26.47
2018-07-31T10:08:01.471Z,26.41
2018-07-31T10:10:30.717Z,26.47
2018-07-31T10:13:00.073Z,26.53
2018-07-31T10:15:29.183Z,26.77
2018-07-31T10:17:58.567Z,26.96
2018-07-31T10:20:27.363Z,27.06
2018-07-31T10:22:56.286Z,27.13
2018-07-31T10:25:25.564Z,27.30
2018-07-31T10:27:54.808Z,27.47
2018-07-31T10:30:24.272Z,27.74
2018-07-31T10:32:53.443Z,27.77
2018-07-31T10:35:22.558Z,27.93
2018-07-31T10:37:51.554Z,28.02
2018-07-31T10:40:20.486Z,28.01
2018-07-31T10:42:49.670Z,27.96
2018-07-31T10:45:18.892Z,27.75
2018-07-31T10:47:48.021Z,27.65
2018-07-31T10:50:17.268Z,27.63
2018-07-31T10:52:46.435Z,27.60
2018-07-31T10:55:15.558Z,27.81
2018-07-31T10:57:44.770Z,27.96
2018-07-31T11:00:13.942Z,27.91
2018-07-31T11:02:43.067Z,27.81
2018-07-31T11:05:12.237Z,27.70
2018-07-31T11:07:41.245Z,27.72
2018-07-31T11:10:10.560Z,27.88
2018-07-31T11:12:39.567Z,27.87
2018-07-31T11:15:08.562Z,27.98
2018-07-31T11:17:37.758Z,27.86
2018-07-31T11:20:06.914Z,27.87
2018-07-31T11:22:36.267Z,27.94
2018-07-31T11:25:06.093Z,28.05
2018-07-31T11:27:35.166Z,28.16
2018-07-31T11:30:05.868Z,28.12
2018-07-31T11:32:35.067Z,28.07
2018-07-31T11:35:04.430Z,28.08
2018-07-31T11:37:33.239Z,28.09
2018-07-31T11:40:02.096Z,28.09
2018-07-31T11:42:31.180Z,28.01
2018-07-31T11:45:00.319Z,28.08
2018-07-31T11:47:29.706Z,28.14
2018-07-31T11:49:59.019Z,28.26
2018-07-31T11:52:28.299Z,28.42
2018-07-31T11:54:57.371Z,28.51
2018-07-31T11:57:26.634Z,28.63
2018-07-31T11:59:55.906Z,28.69
2018-07-31T12:02:25.206Z,28.61
2018-07-31T12:04:54.487Z,28.55
2018-07-31T12:07:23.608Z,28.67
2018-07-31T12:09:52.588Z,28.73
2018-07-31T12:12:21.541Z,28.77
2018-07-31T12:14:50.384Z,28.95
2018-07-31T12:17:19.585Z,29.21
2018-07-31T12:19:48.834Z,29.52
2018-07-31T12:22:17.953Z,29.61
2018-07-31T12:24:46.809Z,29.53
2018-07-31T12:27:16.098Z,29.26
2018-07-31T12:29:45.291Z,29.34
2018-07-31T12:32:14.586Z,29.27
2018-07-31T12:34:43.690Z,29.49
2018-07-31T12:37:13.085Z,30.95
2018-07-31T12:39:42.155Z,33.13
2018-07-31T12:42:11.439Z,35.16
2018-07-31T12:44:40.446Z,36.00
2018-07-31T12:47:09.608Z,36.01
2018-07-31T12:49:38.511Z,34.92
2018-07-31T12:52:07.968Z,34.11
2018-07-31T12:54:36.991Z,34.74
2018-07-31T12:57:06.261Z,35.18
2018-07-31T12:59:35.348Z,35.11
2018-07-31T13:02:04.494Z,34.80
2018-07-31T13:04:33.686Z,34.31
2018-07-31T13:07:02.740Z,33.86
2018-07-31T13:09:31.819Z,33.49
2018-07-31T13:12:00.790Z,33.35
2018-07-31T13:14:29.886Z,33.31
2018-07-31T13:16:58.645Z,33.65
2018-07-31T13:19:27.841Z,34.49
2018-07-31T13:21:57.380Z,35.58
2018-07-31T13:24:26.642Z,36.50
2018-07-31T13:26:55.950Z,37.17
2018-07-31T13:29:25.248Z,37.95
2018-07-31T13:31:54.502Z,38.82
2018-07-31T13:34:23.409Z,39.38
2018-07-31T13:36:52.212Z,39.35
2018-07-31T13:39:21.299Z,39.49
2018-07-31T13:41:50.597Z,39.98
2018-07-31T13:44:19.855Z,40.07
2018-07-31T13:46:48.971Z,39.71
2018-07-31T13:49:18.196Z,39.30
2018-07-31T13:51:47.210Z,38.86
2018-07-31T13:54:16.495Z,38.88
2018-07-31T13:56:45.735Z,39.20
2018-07-31T13:59:15.005Z,39.35
2018-07-31T14:01:43.958Z,39.40
2018-07-31T14:04:12.906Z,39.49
2018-07-31T14:06:42.004Z,38.64
2018-07-31T14:09:11.786Z,37.81
2018-07-31T14:11:41.064Z,37.09
2018-07-31T14:14:10.274Z,36.37
2018-07-31T14:16:39.358Z,35.63
2018-07-31T14:19:08.282Z,35.19
2018-07-31T14:21:37.299Z,34.68
2018-07-31T14:24:06.539Z,34.36
2018-07-31T14:26:35.767Z,34.03
2018-07-31T14:29:05.034Z,33.76
2018-07-31T14:31:34.218Z,33.47
2018-07-31T14:34:03.060Z,33.36
2018-07-31T14:36:32.327Z,33.17
2018-07-31T14:39:01.649Z,32.95
2018-07-31T14:41:30.799Z,32.76
2018-07-31T14:43:59.768Z,32.69
2018-07-31T14:46:28.851Z,32.55
2018-07-31T14:48:57.630Z,32.31
2018-07-31T14:51:26.509Z,32.16
2018-07-31T14:53:55.747Z,32.03
2018-07-31T14:56:24.983Z,31.95
2018-07-31T14:58:54.101Z,31.82
2018-07-31T15:01:22.863Z,31.63
2018-07-31T15:03:51.749Z,31.39
2018-07-31T15:06:20.957Z,31.28
2018-07-31T15:08:49.903Z,31.25
2018-07-31T15:11:19.170Z,31.05
2018-07-31T15:13:48.104Z,30.86
2018-07-31T15:16:17.218Z,30.71
2018-07-31T15:18:46.507Z,30.60
2018-07-31T15:21:15.504Z,30.49
2018-07-31T15:23:44.710Z,30.34
2018-07-31T15:26:13.803Z,30.27
2018-07-31T15:28:42.860Z,30.18
2018-07-31T15:31:12.035Z,30.06
2018-07-31T15:33:41.189Z,29.99
2018-07-31T15:36:10.426Z,29.89
2018-07-31T15:38:39.579Z,29.82
2018-07-31T15:41:08.923Z,29.71
2018-07-31T15:43:37.614Z,29.52
2018-07-31T15:46:06.920Z,29.44
2018-07-31T15:48:35.746Z,29.35
2018-07-31T15:51:04.670Z,29.28
2018-07-31T15:53:34.000Z,29.21
2018-07-31T15:56:03.246Z,29.12
2018-07-31T15:58:32.094Z,28.98
2018-07-31T16:01:01.356Z,28.90
2018-07-31T16:03:30.221Z,28.87
2018-07-31T16:05:59.381Z,28.88
2018-07-31T16:08:28.412Z,28.77
2018-07-31T16:10:57.457Z,28.72
2018-07-31T16:13:26.338Z,28.70
2018-07-31T16:15:55.452Z,28.64
2018-07-31T16:18:24.730Z,28.67
2018-07-31T16:20:53.960Z,28.65
2018-07-31T16:23:23.128Z,28.58
2018-07-31T16:25:52.306Z,28.55
2018-07-31T16:28:21.363Z,28.46
2018-07-31T16:30:50.711Z,28.44
2018-07-31T16:33:19.574Z,28.38
2018-07-31T16:35:48.655Z,28.41
2018-07-31T16:38:17.670Z,28.23
2018-07-31T16:40:46.927Z,28.09
2018-07-31T16:43:16.170Z,28.12
2018-07-31T16:45:45.426Z,27.97
2018-07-31T16:48:14.570Z,28.00
2018-07-31T16:50:43.570Z,27.98
2018-07-31T16:53:12.368Z,27.97
2018-07-31T16:55:41.236Z,27.95
2018-07-31T16:58:10.545Z,27.80
2018-07-31T17:00:39.638Z,27.73
2018-07-31T17:03:08.522Z,27.69
2018-07-31T17:05:37.614Z,27.63
2018-07-31T17:08:06.662Z,27.55
2018-07-31T17:10:35.858Z,27.47
2018-07-31T17:13:04.771Z,27.34
2018-07-31T17:15:34.032Z,27.26
2018-07-31T17:18:02.875Z,27.25
2018-07-31T17:20:31.661Z,27.24
2018-07-31T17:23:00.868Z,27.17
2018-07-31T17:25:30.029Z,27.04
2018-07-31T17:27:59.031Z,26.90
2018-07-31T17:30:27.821Z,26.72
2018-07-31T17:32:57.037Z,26.54
2018-07-31T17:35:26.402Z,26.46
2018-07-31T17:37:55.387Z,26.60
2018-07-31T17:40:24.574Z,26.44
2018-07-31T17:42:53.722Z,26.18
2018-07-31T17:45:22.810Z,26.01
2018-07-31T17:47:51.677Z,25.86
2018-07-31T17:50:20.851Z,25.73
2018-07-31T17:52:49.996Z,25.67
2018-07-31T17:55:19.178Z,25.59
2018-07-31T17:57:48.359Z,25.56
2018-07-31T18:00:17.738Z,25.55
2018-07-31T18:02:46.700Z,25.58
2018-07-31T18:05:15.791Z,25.54
2018-07-31T18:07:45.072Z,25.54
2018-07-31T18:10:14.219Z,25.50
2018-07-31T18:12:43.587Z,25.44
2018-07-31T18:15:12.684Z,25.41
2018-07-31T18:17:41.858Z,25.40
2018-07-31T18:20:11.111Z,25.41
2018-07-31T18:22:40.258Z,25.43
2018-07-31T18:25:09.355Z,25.50
2018-07-31T18:27:38.606Z,25.48
2018-07-31T18:30:07.992Z,25.46
2018-07-31T18:32:37.207Z,25.45
2018-07-31T18:35:06.290Z,25.44
2018-07-31T18:37:35.436Z,25.42
2018-07-31T18:40:04.548Z,25.46
2018-07-31T18:42:33.678Z,25.44
2018-07-31T18:45:02.819Z,25.39
2018-07-31T18:47:31.879Z,25.35
2018-07-31T18:50:01.195Z,25.34
2018-07-31T18:52:30.416Z,25.37
2018-07-31T18:54:59.584Z,25.39
2018-07-31T18:57:28.774Z,25.37
2018-07-31T18:59:57.587Z,25.32
2018-07-31T19:02:26.738Z,25.31
2018-07-31T19:04:55.941Z,25.32
2018-07-31T19:07:25.224Z,25.27
2018-07-31T19:09:54.617Z,25.26
2018-07-31T19:12:23.430Z,25.23
2018-07-31T19:14:53.692Z,25.21
2018-07-31T19:17:23.068Z,25.19
2018-07-31T19:19:52.338Z,25.17
2018-07-31T19:22:21.641Z,25.14
2018-07-31T19:24:50.972Z,25.08
2018-07-31T19:27:20.216Z,25.06
2018-07-31T19:29:49.542Z,25.05
2018-07-31T19:32:18.716Z,25.10
2018-07-31T19:34:48.127Z,25.11
2018-07-31T19:37:17.303Z,25.03
2018-07-31T19:39:46.314Z,25.02
2018-07-31T19:42:15.788Z,24.98
2018-07-31T19:44:45.912Z,24.94
2018-07-31T19:47:14.892Z,24.96
2018-07-31T19:49:44.278Z,24.93
2018-07-31T19:52:14.010Z,24.90
2018-07-31T19:54:43.230Z,24.91
2018-07-31T19:57:12.202Z,24.96
2018-07-31T19:59:41.489Z,24.94
2018-07-31T20:02:10.457Z,24.93
2018-07-31T20:04:40.493Z,24.86
2018-07-31T20:07:09.639Z,24.80
2018-07-31T20:09:38.931Z,24.86
2018-07-31T20:12:08.378Z,24.83
2018-07-31T20:14:37.745Z,24.79
2018-07-31T20:17:06.896Z,24.77
2018-07-31T20:19:35.793Z,24.76
2018-07-31T20:22:05.110Z,24.76
2018-07-31T20:24:34.296Z,24.74
2018-07-31T20:27:03.525Z,24.72
2018-07-31T20:29:32.802Z,24.64
2018-07-31T20:32:02.036Z,24.68
2018-07-31T20:34:30.785Z,24.56
2018-07-31T20:36:59.959Z,24.42
2018-07-31T20:39:29.079Z,24.54
2018-07-31T20:41:58.144Z,24.34
2018-07-31T20:44:27.275Z,24.26
2018-07-31T20:46:56.181Z,24.33
2018-07-31T20:49:25.510Z,24.36
2018-07-31T20:51:54.678Z,24.30
2018-07-31T20:54:23.496Z,24.27
2018-07-31T20:56:52.786Z,24.15
2018-07-31T20:59:21.906Z,24.13
2018-07-31T21:01:51.123Z,24.02
2018-07-31T21:04:20.336Z,23.99
2018-07-31T21:06:49.658Z,24.08
2018-07-31T21:09:20.571Z,24.18
2018-07-31T21:11:50.633Z,24.20
2018-07-31T21:14:19.670Z,24.21
2018-07-31T21:16:48.614Z,24.26
2018-07-31T21:19:17.517Z,24.27
2018-07-31T21:21:46.787Z,24.27
2018-07-31T21:24:16.048Z,24.21
2018-07-31T21:26:45.242Z,24.12
2018-07-31T21:29:14.473Z,24.10
2018-07-31T21:31:43.523Z,24.05
2018-07-31T21:34:12.630Z,24.10
2018-07-31T21:36:41.814Z,24.02
2018-07-31T21:39:12.415Z,23.91
2018-07-31T21:41:41.939Z,23.81
2018-07-31T21:44:11.617Z,23.74
2018-07-31T21:46:40.793Z,23.70
2018-07-31T21:49:10.234Z,23.67
2018-07-31T21:51:39.526Z,23.68
2018-07-31T21:54:08.454Z,23.66
2018-07-31T21:56:37.646Z,23.54
2018-07-31T21:59:06.727Z,23.40
2018-07-31T22:01:35.998Z,23.28
2018-07-31T22:04:05.202Z,23.14
2018-07-31T22:06:34.398Z,23.19
2018-07-31T22:09:03.747Z,23.34
2018-07-31T22:11:33.103Z,23.39
2018-07-31T22:14:02.004Z,23.40
2018-07-31T22:16:31.011Z,23.27
2018-07-31T22:19:00.269Z,23.21
2018-07-31T22:21:29.374Z,23.09
2018-07-31T22:23:58.507Z,23.03
2018-07-31T22:26:27.546Z,22.90
2018-07-31T22:28:56.719Z,23.00
2018-07-31T22:31:25.601Z,23.13
2018-07-31T22:33:54.709Z,22.99
2018-07-31T22:36:23.838Z,23.03
2018-07-31T22:38:53.044Z,22.86
2018-07-31T22:41:22.318Z,22.80
2018-07-31T22:43:51.435Z,23.00
2018-07-31T22:46:20.519Z,22.84
2018-07-31T22:48:49.523Z,22.86
2018-07-31T22:51:18.520Z,23.02
2018-07-31T22:53:47.690Z,22.91
2018-07-31T22:56:16.934Z,22.99
2018-07-31T22:58:46.209Z,22.96
2018-07-31T23:01:15.171Z,23.02
2018-07-31T23:03:44.377Z,23.07
2018-07-31T23:06:13.267Z,23.15
2018-07-31T23:08:42.155Z,23.25
2018-07-31T23:11:11.305Z,23.31
2018-07-31T23:13:40.550Z,23.38
2018-07-31T23:16:09.794Z,23.43
2018-07-31T23:18:39.130Z,23.47
2018-07-31T23:21:08.534Z,23.56
2018-07-31T23:23:37.558Z,23.55
2018-07-31T23:26:06.844Z,23.46
2018-07-31T23:28:35.795Z,23.40
2018-07-31T23:31:04.911Z,23.38
2018-07-31T23:33:34.192Z,23.32
2018-07-31T23:36:03.370Z,23.26
2018-07-31T23:38:32.578Z,23.21
2018-07-31T23:41:01.592Z,23.30
2018-07-31T23:43:30.581Z,23.42
2018-07-31T23:45:59.702Z,23.38
2018-07-31T23:48:28.687Z,23.46
2018-07-31T23:50:57.786Z,23.44
2018-07-31T23:53:26.860Z,23.34
2018-07-31T23:55:55.968Z,23.27
2018-07-31T23:58:25.209Z,22.99
